sensor_id;sensor_type;location;lat;lon;timestamp;P1;durP1;ratioP1;P2;durP2;ratioP2
27223;SDS011;14965;50.660;13.226;2023-04-10T00:00:31;30.95;;;19.60;;
27223;SDS011;14965;50.660;13.226;2023-04-10T00:02:57;36.65;;;20.33;;
27223;SDS011;14965;50.660;13.226;2023-04-10T00:05:24;32.10;;;19.67;;
27223;SDS011;14965;50.660;13.226;2023-04-10T00:07:50;34.35;;;19.83;;
27223;SDS011;14965;50.660;13.226;2023-04-10T00:10:16;31.92;;;19.50;;
27223;SDS011;14965;50.660;13.226;2023-04-10T00:12:41;33.97;;;20.17;;
27223;SDS011;14965;50.660;13.226;2023-04-10T00:15:08;34.17;;;19.85;;
27223;SDS011;14965;50.660;13.226;2023-04-10T00:17:36;34.13;;;20.42;;
27223;SDS011;14965;50.660;13.226;2023-04-10T00:20:03;35.60;;;20.58;;
27223;SDS011;14965;50.660;13.226;2023-04-10T00:22:30;34.70;;;21.38;;
27223;SDS011;14965;50.660;13.226;2023-04-10T00:24:56;32.97;;;20.63;;
27223;SDS011;14965;50.660;13.226;2023-04-10T00:27:22;34.17;;;21.20;;
27223;SDS011;14965;50.660;13.226;2023-04-10T00:29:48;33.10;;;20.27;;
27223;SDS011;14965;50.660;13.226;2023-04-10T00:32:13;35.50;;;20.23;;
27223;SDS011;14965;50.660;13.226;2023-04-10T00:34:41;35.38;;;19.77;;
27223;SDS011;14965;50.660;13.226;2023-04-10T00:37:06;36.10;;;21.13;;
27223;SDS011;14965;50.660;13.226;2023-04-10T00:39:32;34.40;;;20.50;;
27223;SDS011;14965;50.660;13.226;2023-04-10T00:41:58;33.45;;;20.25;;
27223;SDS011;14965;50.660;13.226;2023-04-10T00:44:24;32.60;;;20.13;;
27223;SDS011;14965;50.660;13.226;2023-04-10T00:46:50;35.40;;;20.00;;
27223;SDS011;14965;50.660;13.226;2023-04-10T00:49:16;35.60;;;20.33;;
27223;SDS011;14965;50.660;13.226;2023-04-10T00:51:43;33.45;;;19.63;;
27223;SDS011;14965;50.660;13.226;2023-04-10T00:54:09;33.20;;;19.25;;
27223;SDS011;14965;50.660;13.226;2023-04-10T00:56:36;34.83;;;20.50;;
27223;SDS011;14965;50.660;13.226;2023-04-10T00:59:02;36.28;;;20.95;;
27223;SDS011;14965;50.660;13.226;2023-04-10T01:01:28;33.35;;;20.02;;
27223;SDS011;14965;50.660;13.226;2023-04-10T01:03:54;36.42;;;21.42;;
27223;SDS011;14965;50.660;13.226;2023-04-10T01:06:24;35.75;;;20.58;;
27223;SDS011;14965;50.660;13.226;2023-04-10T01:09:10;35.00;;;20.10;;
27223;SDS011;14965;50.660;13.226;2023-04-10T01:11:52;35.28;;;20.42;;
27223;SDS011;14965;50.660;13.226;2023-04-10T01:14:30;34.83;;;20.17;;
27223;SDS011;14965;50.660;13.226;2023-04-10T01:17:07;34.97;;;19.37;;
27223;SDS011;14965;50.660;13.226;2023-04-10T01:19:49;33.42;;;19.23;;
27223;SDS011;14965;50.660;13.226;2023-04-10T01:22:35;33.65;;;19.50;;
27223;SDS011;14965;50.660;13.226;2023-04-10T01:28:20;31.88;;;19.30;;
27223;SDS011;14965;50.660;13.226;2023-04-10T01:31:26;30.67;;;18.58;;
27223;SDS011;14965;50.660;13.226;2023-04-10T01:34:01;30.23;;;18.73;;
27223;SDS011;14965;50.660;13.226;2023-04-10T01:36:35;32.03;;;19.20;;
27223;SDS011;14965;50.660;13.226;2023-04-10T01:39:07;36.28;;;20.10;;
27223;SDS011;14965;50.660;13.226;2023-04-10T01:41:35;30.70;;;18.98;;
27223;SDS011;14965;50.660;13.226;2023-04-10T01:44:07;33.90;;;19.23;;
27223;SDS011;14965;50.660;13.226;2023-04-10T01:46:38;33.42;;;19.30;;
27223;SDS011;14965;50.660;13.226;2023-04-10T01:49:04;35.55;;;19.67;;
27223;SDS011;14965;50.660;13.226;2023-04-10T01:51:31;33.38;;;19.60;;
27223;SDS011;14965;50.660;13.226;2023-04-10T01:53:59;31.90;;;19.60;;
27223;SDS011;14965;50.660;13.226;2023-04-10T01:56:26;36.78;;;20.40;;
27223;SDS011;14965;50.660;13.226;2023-04-10T01:58:53;33.67;;;19.95;;
27223;SDS011;14965;50.660;13.226;2023-04-10T02:01:22;31.08;;;17.83;;
27223;SDS011;14965;50.660;13.226;2023-04-10T02:03:47;31.42;;;19.60;;
27223;SDS011;14965;50.660;13.226;2023-04-10T02:06:14;32.35;;;18.85;;
27223;SDS011;14965;50.660;13.226;2023-04-10T02:08:52;31.05;;;18.60;;
27223;SDS011;14965;50.660;13.226;2023-04-10T02:11:24;32.45;;;18.60;;
27223;SDS011;14965;50.660;13.226;2023-04-10T02:14:03;30.47;;;18.83;;
27223;SDS011;14965;50.660;13.226;2023-04-10T02:16:36;32.42;;;18.30;;
27223;SDS011;14965;50.660;13.226;2023-04-10T02:19:03;29.58;;;19.17;;
27223;SDS011;14965;50.660;13.226;2023-04-10T02:21:31;28.65;;;17.98;;
27223;SDS011;14965;50.660;13.226;2023-04-10T02:23:57;34.25;;;18.60;;
27223;SDS011;14965;50.660;13.226;2023-04-10T02:26:24;33.20;;;19.17;;
27223;SDS011;14965;50.660;13.226;2023-04-10T02:28:50;30.30;;;19.33;;
27223;SDS011;14965;50.660;13.226;2023-04-10T02:31:16;32.22;;;18.33;;
27223;SDS011;14965;50.660;13.226;2023-04-10T02:33:43;30.23;;;18.55;;
27223;SDS011;14965;50.660;13.226;2023-04-10T02:36:09;37.25;;;20.17;;
27223;SDS011;14965;50.660;13.226;2023-04-10T02:38:35;33.95;;;19.50;;
27223;SDS011;14965;50.660;13.226;2023-04-10T02:41:01;33.80;;;19.50;;
27223;SDS011;14965;50.660;13.226;2023-04-10T02:43:27;32.55;;;18.83;;
27223;SDS011;14965;50.660;13.226;2023-04-10T02:45:53;32.25;;;19.10;;
27223;SDS011;14965;50.660;13.226;2023-04-10T02:48:20;32.92;;;19.80;;
27223;SDS011;14965;50.660;13.226;2023-04-10T02:50:48;34.05;;;20.17;;
27223;SDS011;14965;50.660;13.226;2023-04-10T02:53:14;32.88;;;19.65;;
27223;SDS011;14965;50.660;13.226;2023-04-10T02:55:40;32.60;;;18.38;;
27223;SDS011;14965;50.660;13.226;2023-04-10T02:58:06;32.60;;;19.70;;
27223;SDS011;14965;50.660;13.226;2023-04-10T03:00:32;34.42;;;20.05;;
27223;SDS011;14965;50.660;13.226;2023-04-10T03:02:58;37.90;;;20.08;;
27223;SDS011;14965;50.660;13.226;2023-04-10T03:05:24;35.00;;;20.13;;
27223;SDS011;14965;50.660;13.226;2023-04-10T03:07:51;33.08;;;19.60;;
27223;SDS011;14965;50.660;13.226;2023-04-10T03:10:17;35.50;;;20.40;;
27223;SDS011;14965;50.660;13.226;2023-04-10T03:12:42;32.28;;;19.80;;
27223;SDS011;14965;50.660;13.226;2023-04-10T03:15:09;32.72;;;18.92;;
27223;SDS011;14965;50.660;13.226;2023-04-10T03:17:35;34.55;;;19.75;;
27223;SDS011;14965;50.660;13.226;2023-04-10T03:20:01;35.00;;;19.83;;
27223;SDS011;14965;50.660;13.226;2023-04-10T03:22:27;33.45;;;18.88;;
27223;SDS011;14965;50.660;13.226;2023-04-10T03:24:55;33.08;;;20.10;;
27223;SDS011;14965;50.660;13.226;2023-04-10T03:27:20;34.90;;;20.40;;
27223;SDS011;14965;50.660;13.226;2023-04-10T03:29:46;34.03;;;19.70;;
27223;SDS011;14965;50.660;13.226;2023-04-10T03:32:12;37.47;;;21.45;;
27223;SDS011;14965;50.660;13.226;2023-04-10T03:34:38;36.08;;;21.02;;
27223;SDS011;14965;50.660;13.226;2023-04-10T03:37:04;36.85;;;20.77;;
27223;SDS011;14965;50.660;13.226;2023-04-10T03:39:30;36.85;;;20.42;;
27223;SDS011;14965;50.660;13.226;2023-04-10T03:41:57;37.45;;;20.98;;
27223;SDS011;14965;50.660;13.226;2023-04-10T03:44:23;38.55;;;20.73;;
27223;SDS011;14965;50.660;13.226;2023-04-10T03:46:49;37.83;;;20.65;;
27223;SDS011;14965;50.660;13.226;2023-04-10T03:49:15;42.20;;;22.23;;
27223;SDS011;14965;50.660;13.226;2023-04-10T03:51:40;41.70;;;22.13;;
27223;SDS011;14965;50.660;13.226;2023-04-10T03:54:06;38.53;;;20.88;;
27223;SDS011;14965;50.660;13.226;2023-04-10T03:56:32;36.88;;;20.95;;
27223;SDS011;14965;50.660;13.226;2023-04-10T03:59:00;36.45;;;20.90;;
27223;SDS011;14965;50.660;13.226;2023-04-10T04:01:25;35.70;;;20.02;;
27223;SDS011;14965;50.660;13.226;2023-04-10T04:03:52;37.55;;;21.55;;
27223;SDS011;14965;50.660;13.226;2023-04-10T04:06:17;37.78;;;21.27;;
27223;SDS011;14965;50.660;13.226;2023-04-10T04:08:43;39.25;;;21.90;;
27223;SDS011;14965;50.660;13.226;2023-04-10T04:11:09;40.20;;;22.77;;
27223;SDS011;14965;50.660;13.226;2023-04-10T04:13:35;37.63;;;21.27;;
27223;SDS011;14965;50.660;13.226;2023-04-10T04:16:02;36.40;;;21.35;;
27223;SDS011;14965;50.660;13.226;2023-04-10T04:18:29;38.42;;;20.30;;
27223;SDS011;14965;50.660;13.226;2023-04-10T04:20:55;36.67;;;21.02;;
27223;SDS011;14965;50.660;13.226;2023-04-10T04:23:21;38.78;;;21.80;;
27223;SDS011;14965;50.660;13.226;2023-04-10T04:25:47;37.75;;;21.08;;
27223;SDS011;14965;50.660;13.226;2023-04-10T04:28:13;37.80;;;21.88;;
27223;SDS011;14965;50.660;13.226;2023-04-10T04:30:39;41.10;;;23.40;;
27223;SDS011;14965;50.660;13.226;2023-04-10T04:33:06;38.85;;;21.65;;
27223;SDS011;14965;50.660;13.226;2023-04-10T04:35:32;39.10;;;21.42;;
27223;SDS011;14965;50.660;13.226;2023-04-10T04:37:58;38.53;;;21.77;;
27223;SDS011;14965;50.660;13.226;2023-04-10T04:40:24;38.97;;;21.48;;
27223;SDS011;14965;50.660;13.226;2023-04-10T04:42:50;40.03;;;22.50;;
27223;SDS011;14965;50.660;13.226;2023-04-10T04:45:16;40.25;;;22.08;;
27223;SDS011;14965;50.660;13.226;2023-04-10T04:47:42;37.55;;;22.08;;
27223;SDS011;14965;50.660;13.226;2023-04-10T04:50:10;41.35;;;23.05;;
27223;SDS011;14965;50.660;13.226;2023-04-10T04:52:35;40.67;;;21.17;;
27223;SDS011;14965;50.660;13.226;2023-04-10T04:55:01;37.85;;;21.25;;
27223;SDS011;14965;50.660;13.226;2023-04-10T04:57:28;36.53;;;20.50;;
27223;SDS011;14965;50.660;13.226;2023-04-10T04:59:54;36.17;;;20.42;;
27223;SDS011;14965;50.660;13.226;2023-04-10T05:02:20;38.50;;;20.77;;
27223;SDS011;14965;50.660;13.226;2023-04-10T05:04:46;36.17;;;20.38;;
27223;SDS011;14965;50.660;13.226;2023-04-10T05:07:14;35.75;;;20.48;;
27223;SDS011;14965;50.660;13.226;2023-04-10T05:09:40;42.28;;;20.17;;
27223;SDS011;14965;50.660;13.226;2023-04-10T05:12:07;36.92;;;20.17;;
27223;SDS011;14965;50.660;13.226;2023-04-10T05:14:32;34.42;;;20.15;;
27223;SDS011;14965;50.660;13.226;2023-04-10T05:16:58;37.47;;;20.60;;
27223;SDS011;14965;50.660;13.226;2023-04-10T05:19:25;34.47;;;20.35;;
27223;SDS011;14965;50.660;13.226;2023-04-10T05:21:51;36.65;;;20.85;;
27223;SDS011;14965;50.660;13.226;2023-04-10T05:24:18;32.85;;;19.52;;
27223;SDS011;14965;50.660;13.226;2023-04-10T05:26:45;33.38;;;19.70;;
27223;SDS011;14965;50.660;13.226;2023-04-10T05:29:11;34.88;;;20.00;;
27223;SDS011;14965;50.660;13.226;2023-04-10T05:31:37;32.70;;;18.60;;
27223;SDS011;14965;50.660;13.226;2023-04-10T05:34:03;30.63;;;18.65;;
27223;SDS011;14965;50.660;13.226;2023-04-10T05:36:29;31.63;;;19.60;;
27223;SDS011;14965;50.660;13.226;2023-04-10T05:38:55;33.38;;;19.42;;
27223;SDS011;14965;50.660;13.226;2023-04-10T05:41:22;36.08;;;19.38;;
27223;SDS011;14965;50.660;13.226;2023-04-10T05:43:48;34.13;;;19.92;;
27223;SDS011;14965;50.660;13.226;2023-04-10T05:46:14;36.45;;;20.02;;
27223;SDS011;14965;50.660;13.226;2023-04-10T05:48:40;32.78;;;19.75;;
27223;SDS011;14965;50.660;13.226;2023-04-10T05:51:06;36.45;;;23.08;;
27223;SDS011;14965;50.660;13.226;2023-04-10T05:53:32;94.60;;;68.75;;
27223;SDS011;14965;50.660;13.226;2023-04-10T05:55:58;50.92;;;34.58;;
27223;SDS011;14965;50.660;13.226;2023-04-10T05:58:25;35.35;;;23.20;;
27223;SDS011;14965;50.660;13.226;2023-04-10T06:00:52;34.22;;;22.50;;
27223;SDS011;14965;50.660;13.226;2023-04-10T06:03:18;38.40;;;25.27;;
27223;SDS011;14965;50.660;13.226;2023-04-10T06:05:48;34.92;;;23.58;;
27223;SDS011;14965;50.660;13.226;2023-04-10T06:08:14;32.42;;;20.65;;
27223;SDS011;14965;50.660;13.226;2023-04-10T06:10:40;29.58;;;19.13;;
27223;SDS011;14965;50.660;13.226;2023-04-10T06:13:06;34.60;;;20.08;;
27223;SDS011;14965;50.660;13.226;2023-04-10T06:15:34;30.70;;;19.98;;
27223;SDS011;14965;50.660;13.226;2023-04-10T06:18:00;32.20;;;19.77;;
27223;SDS011;14965;50.660;13.226;2023-04-10T06:20:26;30.15;;;19.15;;
27223;SDS011;14965;50.660;13.226;2023-04-10T06:22:52;31.00;;;20.55;;
27223;SDS011;14965;50.660;13.226;2023-04-10T06:25:18;34.15;;;21.70;;
27223;SDS011;14965;50.660;13.226;2023-04-10T06:27:44;33.30;;;21.05;;
27223;SDS011;14965;50.660;13.226;2023-04-10T06:30:10;29.55;;;19.15;;
27223;SDS011;14965;50.660;13.226;2023-04-10T06:32:38;30.13;;;18.70;;
27223;SDS011;14965;50.660;13.226;2023-04-10T06:35:04;30.25;;;18.52;;
27223;SDS011;14965;50.660;13.226;2023-04-10T06:37:31;30.75;;;19.35;;
27223;SDS011;14965;50.660;13.226;2023-04-10T06:40:01;30.08;;;18.60;;
27223;SDS011;14965;50.660;13.226;2023-04-10T06:42:29;29.85;;;18.35;;
27223;SDS011;14965;50.660;13.226;2023-04-10T06:44:55;32.70;;;19.95;;
27223;SDS011;14965;50.660;13.226;2023-04-10T06:47:21;32.60;;;20.10;;
27223;SDS011;14965;50.660;13.226;2023-04-10T06:49:48;33.05;;;20.38;;
27223;SDS011;14965;50.660;13.226;2023-04-10T06:52:15;33.40;;;20.60;;
27223;SDS011;14965;50.660;13.226;2023-04-10T06:54:41;32.88;;;19.77;;
27223;SDS011;14965;50.660;13.226;2023-04-10T06:57:07;27.67;;;18.23;;
27223;SDS011;14965;50.660;13.226;2023-04-10T06:59:33;34.60;;;20.10;;
27223;SDS011;14965;50.660;13.226;2023-04-10T07:02:00;35.00;;;20.27;;
27223;SDS011;14965;50.660;13.226;2023-04-10T07:04:27;38.63;;;21.25;;
27223;SDS011;14965;50.660;13.226;2023-04-10T07:06:54;31.58;;;18.40;;
27223;SDS011;14965;50.660;13.226;2023-04-10T07:09:20;35.72;;;22.17;;
27223;SDS011;14965;50.660;13.226;2023-04-10T07:11:47;33.28;;;21.05;;
27223;SDS011;14965;50.660;13.226;2023-04-10T07:14:13;36.85;;;22.95;;
27223;SDS011;14965;50.660;13.226;2023-04-10T07:16:39;33.05;;;21.73;;
27223;SDS011;14965;50.660;13.226;2023-04-10T07:19:05;33.17;;;20.05;;
27223;SDS011;14965;50.660;13.226;2023-04-10T07:21:31;32.15;;;18.80;;
27223;SDS011;14965;50.660;13.226;2023-04-10T07:23:58;33.00;;;19.50;;
27223;SDS011;14965;50.660;13.226;2023-04-10T07:26:24;37.40;;;20.63;;
27223;SDS011;14965;50.660;13.226;2023-04-10T07:28:50;32.85;;;19.83;;
27223;SDS011;14965;50.660;13.226;2023-04-10T07:31:16;34.03;;;20.25;;
27223;SDS011;14965;50.660;13.226;2023-04-10T07:33:42;36.30;;;20.85;;
27223;SDS011;14965;50.660;13.226;2023-04-10T07:36:09;32.58;;;19.58;;
27223;SDS011;14965;50.660;13.226;2023-04-10T07:38:35;28.67;;;17.92;;
27223;SDS011;14965;50.660;13.226;2023-04-10T07:41:02;30.70;;;18.77;;
27223;SDS011;14965;50.660;13.226;2023-04-10T07:43:29;26.30;;;16.77;;
27223;SDS011;14965;50.660;13.226;2023-04-10T07:45:55;28.27;;;16.40;;
27223;SDS011;14965;50.660;13.226;2023-04-10T07:48:21;28.38;;;16.55;;
27223;SDS011;14965;50.660;13.226;2023-04-10T07:50:48;23.50;;;14.65;;
27223;SDS011;14965;50.660;13.226;2023-04-10T07:53:14;21.35;;;14.45;;
27223;SDS011;14965;50.660;13.226;2023-04-10T07:55:40;25.05;;;14.95;;
27223;SDS011;14965;50.660;13.226;2023-04-10T07:58:09;28.40;;;15.85;;
27223;SDS011;14965;50.660;13.226;2023-04-10T08:00:35;25.73;;;16.40;;
27223;SDS011;14965;50.660;13.226;2023-04-10T08:03:02;26.30;;;15.57;;
27223;SDS011;14965;50.660;13.226;2023-04-10T08:05:28;28.50;;;17.67;;
27223;SDS011;14965;50.660;13.226;2023-04-10T08:07:55;22.08;;;13.73;;
27223;SDS011;14965;50.660;13.226;2023-04-10T08:10:21;21.50;;;13.05;;
27223;SDS011;14965;50.660;13.226;2023-04-10T08:12:47;20.88;;;13.50;;
27223;SDS011;14965;50.660;13.226;2023-04-10T08:15:14;21.48;;;14.25;;
27223;SDS011;14965;50.660;13.226;2023-04-10T08:17:42;23.90;;;14.45;;
27223;SDS011;14965;50.660;13.226;2023-04-10T08:20:08;23.50;;;14.32;;
27223;SDS011;14965;50.660;13.226;2023-04-10T08:22:36;22.90;;;14.00;;
27223;SDS011;14965;50.660;13.226;2023-04-10T08:25:02;23.55;;;14.43;;
27223;SDS011;14965;50.660;13.226;2023-04-10T08:27:29;21.40;;;13.98;;
27223;SDS011;14965;50.660;13.226;2023-04-10T08:29:55;24.50;;;14.50;;
27223;SDS011;14965;50.660;13.226;2023-04-10T08:32:23;24.67;;;14.55;;
27223;SDS011;14965;50.660;13.226;2023-04-10T08:34:49;25.55;;;14.93;;
27223;SDS011;14965;50.660;13.226;2023-04-10T08:37:15;24.85;;;14.88;;
27223;SDS011;14965;50.660;13.226;2023-04-10T08:39:41;21.35;;;13.82;;
27223;SDS011;14965;50.660;13.226;2023-04-10T08:42:07;22.45;;;14.32;;
27223;SDS011;14965;50.660;13.226;2023-04-10T08:44:32;22.40;;;14.30;;
27223;SDS011;14965;50.660;13.226;2023-04-10T08:46:58;24.80;;;15.00;;
27223;SDS011;14965;50.660;13.226;2023-04-10T08:49:28;24.75;;;15.95;;
27223;SDS011;14965;50.660;13.226;2023-04-10T08:52:05;25.60;;;16.38;;
27223;SDS011;14965;50.660;13.226;2023-04-10T08:54:34;28.92;;;15.77;;
27223;SDS011;14965;50.660;13.226;2023-04-10T08:57:03;22.83;;;14.65;;
27223;SDS011;14965;50.660;13.226;2023-04-10T08:59:33;20.92;;;14.05;;
27223;SDS011;14965;50.660;13.226;2023-04-10T09:01:59;21.42;;;14.23;;
27223;SDS011;14965;50.660;13.226;2023-04-10T09:04:25;24.95;;;15.52;;
27223;SDS011;14965;50.660;13.226;2023-04-10T09:06:52;25.13;;;15.43;;
27223;SDS011;14965;50.660;13.226;2023-04-10T09:09:19;21.48;;;14.80;;
27223;SDS011;14965;50.660;13.226;2023-04-10T09:11:54;22.60;;;15.05;;
27223;SDS011;14965;50.660;13.226;2023-04-10T09:14:22;25.60;;;15.38;;
27223;SDS011;14965;50.660;13.226;2023-04-10T09:16:52;24.10;;;15.68;;
27223;SDS011;14965;50.660;13.226;2023-04-10T09:19:29;22.58;;;14.43;;
27223;SDS011;14965;50.660;13.226;2023-04-10T09:21:57;21.08;;;12.95;;
27223;SDS011;14965;50.660;13.226;2023-04-10T09:24:22;21.77;;;14.13;;
27223;SDS011;14965;50.660;13.226;2023-04-10T09:26:51;21.83;;;13.68;;
27223;SDS011;14965;50.660;13.226;2023-04-10T09:29:17;20.98;;;14.27;;
27223;SDS011;14965;50.660;13.226;2023-04-10T09:31:43;23.30;;;13.68;;
27223;SDS011;14965;50.660;13.226;2023-04-10T09:34:11;21.95;;;13.90;;
27223;SDS011;14965;50.660;13.226;2023-04-10T09:36:40;23.30;;;14.43;;
27223;SDS011;14965;50.660;13.226;2023-04-10T09:39:08;22.95;;;14.63;;
27223;SDS011;14965;50.660;13.226;2023-04-10T09:41:45;23.05;;;14.10;;
27223;SDS011;14965;50.660;13.226;2023-04-10T09:44:17;22.60;;;13.73;;
27223;SDS011;14965;50.660;13.226;2023-04-10T09:46:52;18.95;;;13.60;;
27223;SDS011;14965;50.660;13.226;2023-04-10T09:49:19;21.48;;;14.30;;
27223;SDS011;14965;50.660;13.226;2023-04-10T09:51:46;19.65;;;12.65;;
27223;SDS011;14965;50.660;13.226;2023-04-10T09:54:12;18.27;;;12.02;;
27223;SDS011;14965;50.660;13.226;2023-04-10T09:56:38;19.13;;;13.23;;
27223;SDS011;14965;50.660;13.226;2023-04-10T09:59:05;20.08;;;12.63;;
27223;SDS011;14965;50.660;13.226;2023-04-10T10:01:33;22.08;;;14.00;;
27223;SDS011;14965;50.660;13.226;2023-04-10T10:04:04;19.10;;;13.27;;
27223;SDS011;14965;50.660;13.226;2023-04-10T10:06:30;18.33;;;11.75;;
27223;SDS011;14965;50.660;13.226;2023-04-10T10:08:58;19.15;;;12.98;;
27223;SDS011;14965;50.660;13.226;2023-04-10T10:11:27;15.43;;;10.80;;
27223;SDS011;14965;50.660;13.226;2023-04-10T10:13:57;15.23;;;10.48;;
27223;SDS011;14965;50.660;13.226;2023-04-10T10:16:28;18.25;;;11.77;;
27223;SDS011;14965;50.660;13.226;2023-04-10T10:19:05;15.82;;;11.25;;
27223;SDS011;14965;50.660;13.226;2023-04-10T10:21:40;18.45;;;11.88;;
27223;SDS011;14965;50.660;13.226;2023-04-10T10:24:10;17.23;;;10.80;;
27223;SDS011;14965;50.660;13.226;2023-04-10T10:26:38;16.77;;;11.43;;
27223;SDS011;14965;50.660;13.226;2023-04-10T10:29:05;19.52;;;12.85;;
27223;SDS011;14965;50.660;13.226;2023-04-10T10:31:33;18.48;;;12.38;;
27223;SDS011;14965;50.660;13.226;2023-04-10T10:34:00;19.73;;;12.52;;
27223;SDS011;14965;50.660;13.226;2023-04-10T10:36:27;16.40;;;11.75;;
27223;SDS011;14965;50.660;13.226;2023-04-10T10:38:57;17.45;;;12.05;;
27223;SDS011;14965;50.660;13.226;2023-04-10T10:41:57;18.50;;;12.23;;
27223;SDS011;14965;50.660;13.226;2023-04-10T10:44:35;17.17;;;11.38;;
27223;SDS011;14965;50.660;13.226;2023-04-10T10:47:12;17.38;;;11.02;;
27223;SDS011;14965;50.660;13.226;2023-04-10T10:49:50;16.52;;;10.77;;
27223;SDS011;14965;50.660;13.226;2023-04-10T10:57:56;13.98;;;9.48;;
27223;SDS011;14965;50.660;13.226;2023-04-10T11:00:24;13.13;;;9.50;;
27223;SDS011;14965;50.660;13.226;2023-04-10T11:03:27;15.68;;;9.75;;
27223;SDS011;14965;50.660;13.226;2023-04-10T11:05:54;14.82;;;10.23;;
27223;SDS011;14965;50.660;13.226;2023-04-10T11:08:34;16.70;;;11.40;;
27223;SDS011;14965;50.660;13.226;2023-04-10T11:11:11;15.27;;;10.88;;
27223;SDS011;14965;50.660;13.226;2023-04-10T11:16:40;16.88;;;11.35;;
27223;SDS011;14965;50.660;13.226;2023-04-10T11:19:09;16.52;;;11.93;;
27223;SDS011;14965;50.660;13.226;2023-04-10T11:21:40;18.63;;;13.23;;
27223;SDS011;14965;50.660;13.226;2023-04-10T11:24:26;17.90;;;12.15;;
27223;SDS011;14965;50.660;13.226;2023-04-10T11:26:53;17.60;;;13.02;;
27223;SDS011;14965;50.660;13.226;2023-04-10T11:29:32;17.83;;;12.43;;
27223;SDS011;14965;50.660;13.226;2023-04-10T11:31:58;18.77;;;13.02;;
27223;SDS011;14965;50.660;13.226;2023-04-10T11:34:27;17.63;;;12.63;;
27223;SDS011;14965;50.660;13.226;2023-04-10T11:36:54;18.50;;;12.73;;
27223;SDS011;14965;50.660;13.226;2023-04-10T11:39:21;17.77;;;12.75;;
27223;SDS011;14965;50.660;13.226;2023-04-10T11:41:47;21.63;;;14.63;;
27223;SDS011;14965;50.660;13.226;2023-04-10T11:44:15;22.35;;;14.60;;
27223;SDS011;14965;50.660;13.226;2023-04-10T11:46:43;20.42;;;15.00;;
27223;SDS011;14965;50.660;13.226;2023-04-10T11:49:10;24.15;;;15.38;;
27223;SDS011;14965;50.660;13.226;2023-04-10T11:51:39;23.52;;;15.40;;
27223;SDS011;14965;50.660;13.226;2023-04-10T11:54:06;20.67;;;13.98;;
27223;SDS011;14965;50.660;13.226;2023-04-10T11:56:34;18.52;;;13.23;;
27223;SDS011;14965;50.660;13.226;2023-04-10T11:59:01;21.48;;;13.77;;
27223;SDS011;14965;50.660;13.226;2023-04-10T12:01:28;18.67;;;13.02;;
27223;SDS011;14965;50.660;13.226;2023-04-10T12:03:54;17.42;;;12.50;;
27223;SDS011;14965;50.660;13.226;2023-04-10T12:06:20;19.15;;;12.73;;
27223;SDS011;14965;50.660;13.226;2023-04-10T12:08:48;19.83;;;14.48;;
27223;SDS011;14965;50.660;13.226;2023-04-10T12:11:16;19.55;;;14.20;;
27223;SDS011;14965;50.660;13.226;2023-04-10T12:16:09;17.50;;;12.40;;
27223;SDS011;14965;50.660;13.226;2023-04-10T12:18:35;19.90;;;13.45;;
27223;SDS011;14965;50.660;13.226;2023-04-10T12:21:02;19.52;;;13.57;;
27223;SDS011;14965;50.660;13.226;2023-04-10T12:23:30;17.30;;;12.40;;
27223;SDS011;14965;50.660;13.226;2023-04-10T12:26:13;19.48;;;14.23;;
27223;SDS011;14965;50.660;13.226;2023-04-10T12:28:43;19.48;;;14.60;;
27223;SDS011;14965;50.660;13.226;2023-04-10T12:31:16;18.00;;;13.65;;
27223;SDS011;14965;50.660;13.226;2023-04-10T12:33:42;17.90;;;12.55;;
27223;SDS011;14965;50.660;13.226;2023-04-10T12:36:18;16.85;;;11.52;;
27223;SDS011;14965;50.660;13.226;2023-04-10T12:38:45;17.10;;;12.00;;
27223;SDS011;14965;50.660;13.226;2023-04-10T12:41:12;17.77;;;12.52;;
27223;SDS011;14965;50.660;13.226;2023-04-10T12:43:46;18.30;;;12.23;;
27223;SDS011;14965;50.660;13.226;2023-04-10T12:46:21;16.45;;;10.95;;
27223;SDS011;14965;50.660;13.226;2023-04-10T12:48:50;14.98;;;10.32;;
27223;SDS011;14965;50.660;13.226;2023-04-10T12:51:16;17.17;;;11.10;;
27223;SDS011;14965;50.660;13.226;2023-04-10T12:53:42;15.07;;;10.50;;
27223;SDS011;14965;50.660;13.226;2023-04-10T12:56:08;15.32;;;10.52;;
27223;SDS011;14965;50.660;13.226;2023-04-10T12:58:35;17.70;;;10.82;;
27223;SDS011;14965;50.660;13.226;2023-04-10T13:01:02;18.98;;;11.18;;
27223;SDS011;14965;50.660;13.226;2023-04-10T13:05:58;15.02;;;10.32;;
27223;SDS011;14965;50.660;13.226;2023-04-10T13:08:24;15.65;;;10.73;;
27223;SDS011;14965;50.660;13.226;2023-04-10T13:10:50;13.63;;;9.90;;
27223;SDS011;14965;50.660;13.226;2023-04-10T13:13:16;13.23;;;9.73;;
27223;SDS011;14965;50.660;13.226;2023-04-10T13:15:43;12.68;;;10.05;;
27223;SDS011;14965;50.660;13.226;2023-04-10T13:18:10;11.52;;;8.48;;
27223;SDS011;14965;50.660;13.226;2023-04-10T13:20:36;12.90;;;9.43;;
27223;SDS011;14965;50.660;13.226;2023-04-10T13:23:03;12.23;;;9.40;;
27223;SDS011;14965;50.660;13.226;2023-04-10T13:25:30;13.13;;;9.13;;
27223;SDS011;14965;50.660;13.226;2023-04-10T13:27:58;12.88;;;9.65;;
27223;SDS011;14965;50.660;13.226;2023-04-10T13:30:24;11.98;;;9.05;;
27223;SDS011;14965;50.660;13.226;2023-04-10T13:32:52;11.55;;;8.40;;
27223;SDS011;14965;50.660;13.226;2023-04-10T13:35:18;12.02;;;9.07;;
27223;SDS011;14965;50.660;13.226;2023-04-10T13:37:44;11.35;;;8.52;;
27223;SDS011;14965;50.660;13.226;2023-04-10T13:40:09;15.88;;;11.20;;
27223;SDS011;14965;50.660;13.226;2023-04-10T13:42:36;10.93;;;8.25;;
27223;SDS011;14965;50.660;13.226;2023-04-10T13:45:03;10.63;;;7.60;;
27223;SDS011;14965;50.660;13.226;2023-04-10T13:47:29;10.00;;;7.55;;
27223;SDS011;14965;50.660;13.226;2023-04-10T13:49:56;13.23;;;8.23;;
27223;SDS011;14965;50.660;13.226;2023-04-10T13:52:22;13.00;;;8.52;;
27223;SDS011;14965;50.660;13.226;2023-04-10T13:54:48;11.35;;;7.70;;
27223;SDS011;14965;50.660;13.226;2023-04-10T13:57:14;10.63;;;7.85;;
27223;SDS011;14965;50.660;13.226;2023-04-10T13:59:39;11.93;;;8.90;;
27223;SDS011;14965;50.660;13.226;2023-04-10T14:02:05;13.85;;;9.32;;
27223;SDS011;14965;50.660;13.226;2023-04-10T14:04:31;12.82;;;9.35;;
27223;SDS011;14965;50.660;13.226;2023-04-10T14:06:59;12.43;;;9.15;;
27223;SDS011;14965;50.660;13.226;2023-04-10T14:09:25;13.50;;;9.43;;
27223;SDS011;14965;50.660;13.226;2023-04-10T14:11:51;12.57;;;8.73;;
27223;SDS011;14965;50.660;13.226;2023-04-10T14:14:17;13.45;;;9.05;;
27223;SDS011;14965;50.660;13.226;2023-04-10T14:16:43;11.07;;;7.93;;
27223;SDS011;14965;50.660;13.226;2023-04-10T14:19:09;10.40;;;7.03;;
27223;SDS011;14965;50.660;13.226;2023-04-10T14:21:35;10.15;;;7.30;;
27223;SDS011;14965;50.660;13.226;2023-04-10T14:24:03;9.48;;;7.38;;
27223;SDS011;14965;50.660;13.226;2023-04-10T14:26:29;12.60;;;7.70;;
27223;SDS011;14965;50.660;13.226;2023-04-10T14:28:55;9.07;;;6.70;;
27223;SDS011;14965;50.660;13.226;2023-04-10T14:31:21;9.45;;;7.15;;